This is the latest recevied weather packets stored in our database for station/object KF5WCW-1. If no packets are shown the sender has not sent any weather packets the latest 10 day(s).
| Time | Temp. | Humidity | Pressure | Rain* | Wind** | Luminosity | Snow |
|---|---|---|---|---|---|---|---|
| 1777736776 | 8.89° C | 46% | 0 hPa | 0 mm | - | - | - |
| 1777736476 | 8.33° C | 49% | 0 hPa | 0 mm | - | - | - |
| 1777736176 | 8.33° C | 49% | 0 hPa | 0 mm | - | - | - |
| 1777735876 | 8.33° C | 49% | 0 hPa | 0 mm | - | - | - |
| 1777735576 | 7.78° C | 53% | 0 hPa | 0 mm | - | - | - |
| 1777735276 | 7.78° C | 54% | 0 hPa | 0 mm | - | - | - |
| 1777734976 | 7.22° C | 59% | 0 hPa | 0 mm | - | - | - |
| 1777734676 | 6.67° C | 61% | 0 hPa | 0 mm | - | - | - |
| 1777734376 | 6.67° C | 61% | 0 hPa | 0 mm | - | - | - |
| 1777734076 | 6.11° C | 63% | 0 hPa | 0 mm | - | - | - |
| 1777733776 | 5.56° C | 65% | 0 hPa | 0 mm | - | - | - |
| 1777733476 | 5° C | 66% | 0 hPa | 0 mm | - | - | - |
| 1777733176 | 5° C | 67% | 0 hPa | 0 mm | - | - | - |
| 1777732876 | 4.44° C | 68% | 0 hPa | 0 mm | - | - | - |
| 1777732576 | 3.89° C | 70% | 0 hPa | 0 mm | - | - | - |
| 1777732276 | 3.89° C | 70% | 0 hPa | 0 mm | - | - | - |
| 1777731976 | 3.89° C | 71% | 0 hPa | 0 mm | - | - | - |
| 1777731676 | 3.89° C | 73% | 0 hPa | 0 mm | - | - | - |
| 1777731376 | 3.33° C | 74% | 0 hPa | 0 mm | - | - | - |
| 1777731076 | 3.33° C | 74% | 0 hPa | 0 mm | - | - | - |
| 1777730776 | 3.33° C | 74% | 0 hPa | 0 mm | - | - | - |
| 1777730476 | 3.33° C | 76% | 0 hPa | 0 mm | - | - | - |
| 1777730176 | 3.33° C | 74% | 0 hPa | 0 mm | - | - | - |
| 1777729876 | 2.78° C | 76% | 0 hPa | 0 mm | - | - | - |
| 1777729576 | 2.78° C | 76% | 0 hPa | 0 mm | - | - | - |
* Rain latest hour (hover to see other rain measurements)
** Current wind speed in m/s (hover to see current wind gust speed)